createdAt,value
2018-09-23T00:00:44.815Z,73.70
2018-09-23T00:03:14.474Z,73.80
2018-09-23T00:05:44.191Z,73.40
2018-09-23T00:08:13.769Z,73.50
2018-09-23T00:10:43.321Z,73.50
2018-09-23T00:13:13.058Z,73.20
2018-09-23T00:15:43.253Z,72.40
2018-09-23T00:18:12.712Z,71.30
2018-09-23T00:20:42.314Z,70.00
2018-09-23T00:23:12.266Z,68.80
2018-09-23T00:25:41.764Z,69.20
2018-09-23T00:28:13.012Z,66.80
2018-09-23T00:30:42.789Z,66.10
2018-09-23T00:33:12.220Z,65.60
2018-09-23T00:35:41.904Z,64.80
2018-09-23T00:38:11.847Z,64.10
2018-09-23T00:40:41.485Z,63.80
2018-09-23T00:43:11.145Z,62.40
2018-09-23T00:45:40.691Z,61.20
2018-09-23T00:48:10.495Z,59.80
2018-09-23T00:50:40.149Z,59.30
2018-09-23T00:53:09.694Z,59.40
2018-09-23T00:55:39.493Z,59.90
2018-09-23T00:58:09.218Z,59.80
2018-09-23T01:00:38.929Z,58.90
2018-09-23T01:03:09.485Z,59.00
2018-09-23T01:05:39.289Z,59.40
2018-09-23T01:08:09.532Z,59.00
2018-09-23T01:10:40.575Z,58.80
2018-09-23T01:13:10.181Z,59.30
2018-09-23T01:15:40.556Z,59.50
2018-09-23T01:18:10.201Z,59.40
2018-09-23T01:20:40.229Z,60.00
2018-09-23T01:23:09.780Z,59.60
2018-09-23T01:25:39.612Z,59.10
2018-09-23T01:28:09.952Z,59.80
2018-09-23T01:30:39.567Z,60.00
2018-09-23T01:33:10.929Z,59.90
2018-09-23T01:35:41.060Z,60.20
2018-09-23T01:38:11.183Z,60.10
2018-09-23T01:40:41.228Z,60.00
2018-09-23T01:43:12.238Z,59.90
2018-09-23T01:45:42.440Z,59.70
2018-09-23T01:48:12.784Z,59.50
2018-09-23T01:50:42.277Z,59.50
2018-09-23T01:53:11.838Z,60.60
2018-09-23T01:55:42.187Z,60.90
2018-09-23T01:58:12.694Z,61.30
2018-09-23T02:00:42.735Z,61.80
2018-09-23T02:03:13.518Z,62.80
2018-09-23T02:05:45.123Z,63.10
2018-09-23T02:08:14.812Z,63.40
2018-09-23T02:10:45.859Z,64.10
2018-09-23T02:13:15.397Z,64.60
2018-09-23T02:15:45.056Z,65.80
2018-09-23T02:18:15.931Z,66.20
2018-09-23T02:20:45.605Z,66.50
2018-09-23T02:23:15.407Z,66.50
2018-09-23T02:25:45.198Z,66.90
2018-09-23T02:28:14.894Z,67.70
2018-09-23T02:30:44.520Z,69.00
2018-09-23T02:33:15.901Z,70.00
2018-09-23T02:35:46.485Z,70.10
2018-09-23T02:38:18.263Z,70.20
2018-09-23T02:40:47.949Z,68.70
2018-09-23T02:43:18.657Z,68.80
2018-09-23T02:45:49.414Z,68.90
2018-09-23T02:48:19.665Z,69.00
2018-09-23T02:50:49.295Z,67.40
2018-09-23T02:53:19.815Z,67.00
2018-09-23T02:55:50.646Z,66.30
2018-09-23T02:58:21.008Z,66.80
2018-09-23T03:00:51.115Z,66.80
2018-09-23T03:03:20.800Z,67.30
2018-09-23T03:05:50.573Z,67.50
2018-09-23T03:08:20.949Z,68.00
2018-09-23T03:10:50.605Z,68.40
2018-09-23T03:13:20.884Z,68.60
2018-09-23T03:15:51.371Z,68.90
2018-09-23T03:18:20.999Z,68.80
2018-09-23T03:20:50.730Z,67.70
2018-09-23T03:23:21.200Z,69.20
2018-09-23T03:25:50.954Z,69.40
2018-09-23T03:28:21.149Z,69.40
2018-09-23T03:30:53.088Z,70.60
2018-09-23T03:33:22.738Z,71.60
2018-09-23T03:35:53.222Z,72.70
2018-09-23T03:38:23.428Z,73.10
2018-09-23T03:40:53.872Z,73.90
2018-09-23T03:43:23.935Z,74.90
2018-09-23T03:45:53.812Z,75.20
2018-09-23T03:48:23.445Z,75.10
2018-09-23T03:50:53.238Z,75.20
2018-09-23T03:53:23.012Z,76.10
2018-09-23T03:55:52.550Z,74.00
2018-09-23T03:58:24.062Z,72.70
2018-09-23T04:00:54.369Z,72.30
2018-09-23T04:03:25.134Z,72.10
2018-09-23T04:05:55.045Z,71.90
2018-09-23T04:08:25.373Z,72.00
2018-09-23T04:10:55.440Z,72.50
2018-09-23T04:13:26.664Z,74.50
2018-09-23T04:15:56.361Z,75.00
2018-09-23T04:18:26.851Z,76.00
2018-09-23T04:20:56.360Z,76.50
2018-09-23T04:23:26.177Z,77.10
2018-09-23T04:25:55.849Z,77.40
2018-09-23T04:28:26.344Z,77.60
2018-09-23T04:30:56.481Z,79.00
2018-09-23T04:33:26.149Z,78.60
2018-09-23T04:35:56.391Z,79.50
2018-09-23T04:38:26.081Z,80.20
2018-09-23T04:40:57.646Z,80.60
2018-09-23T04:43:27.850Z,80.60
2018-09-23T04:45:57.561Z,80.40
2018-09-23T04:48:29.229Z,80.80
2018-09-23T04:50:59.018Z,81.20
2018-09-23T04:53:28.701Z,80.20
2018-09-23T04:55:58.229Z,80.00
2018-09-23T04:58:27.690Z,79.80
2018-09-23T05:00:57.144Z,79.60
2018-09-23T05:03:27.337Z,79.70
2018-09-23T05:05:56.848Z,79.80
2018-09-23T05:08:26.698Z,79.70
2018-09-23T05:10:57.022Z,80.60
2018-09-23T05:13:26.669Z,80.90
2018-09-23T05:15:57.157Z,81.20
2018-09-23T05:18:26.725Z,81.50
2018-09-23T05:20:56.782Z,81.70
2018-09-23T05:23:26.908Z,82.10
2018-09-23T05:25:56.616Z,82.60
2018-09-23T05:28:27.030Z,83.00
2018-09-23T05:30:57.753Z,83.10
2018-09-23T05:33:27.380Z,83.40
2018-09-23T05:35:58.811Z,83.40
2018-09-23T05:38:29.526Z,83.20
2018-09-23T05:40:59.028Z,83.70
2018-09-23T05:43:30.186Z,84.10
2018-09-23T05:45:59.865Z,84.60
2018-09-23T05:48:30.797Z,84.80
2018-09-23T05:51:00.401Z,85.00
2018-09-23T05:53:30.120Z,85.00
2018-09-23T05:56:00.116Z,85.30
2018-09-23T05:58:30.797Z,85.60
2018-09-23T06:01:02.004Z,85.60
2018-09-23T06:03:32.157Z,85.80
2018-09-23T06:06:03.506Z,86.10
2018-09-23T06:08:34.448Z,86.10
2018-09-23T06:11:05.660Z,86.50
2018-09-23T06:13:35.785Z,86.40
2018-09-23T06:16:05.849Z,86.70
2018-09-23T06:18:36.313Z,87.00
2018-09-23T06:21:06.189Z,86.40
2018-09-23T06:23:35.757Z,86.10
2018-09-23T06:26:05.468Z,86.30
2018-09-23T06:28:35.064Z,85.40
2018-09-23T06:31:04.755Z,85.70
2018-09-23T06:33:34.283Z,85.40
2018-09-23T06:36:08.670Z,85.60
2018-09-23T06:38:38.384Z,85.30
2018-09-23T06:41:09.317Z,85.00
2018-09-23T06:43:40.071Z,84.60
2018-09-23T06:46:09.999Z,84.60
2018-09-23T06:48:39.579Z,84.40
2018-09-23T06:51:09.337Z,83.70
2018-09-23T06:53:39.765Z,83.10
2018-09-23T06:56:09.665Z,83.70
2018-09-23T06:58:40.685Z,83.80
2018-09-23T07:01:11.127Z,84.10
2018-09-23T07:03:43.503Z,84.50
2018-09-23T07:06:13.509Z,84.80
2018-09-23T07:08:44.043Z,84.70
2018-09-23T07:11:14.897Z,84.10
2018-09-23T07:13:44.516Z,84.00
2018-09-23T07:16:14.332Z,83.80
2018-09-23T07:18:45.956Z,83.80
2018-09-23T07:21:16.640Z,83.80
2018-09-23T07:23:46.536Z,83.90
2018-09-23T07:26:16.951Z,83.00
2018-09-23T07:28:46.629Z,83.00
2018-09-23T07:31:17.173Z,82.10
2018-09-23T07:33:47.287Z,81.70
2018-09-23T07:36:17.413Z,81.60
2018-09-23T07:38:48.823Z,81.50
2018-09-23T07:41:18.658Z,81.70
2018-09-23T07:43:48.387Z,80.90
2018-09-23T07:46:18.265Z,81.10
2018-09-23T07:48:48.043Z,80.90
2018-09-23T07:51:18.195Z,78.50
2018-09-23T07:53:47.684Z,78.50
2018-09-23T07:56:17.356Z,76.80
2018-09-23T07:58:46.757Z,75.90
2018-09-23T08:01:16.888Z,76.20
2018-09-23T08:03:46.321Z,75.80
2018-09-23T08:06:15.990Z,75.50
2018-09-23T08:08:45.617Z,75.20
2018-09-23T08:11:15.157Z,75.80
2018-09-23T08:13:45.179Z,75.80
2018-09-23T08:16:14.633Z,74.50
2018-09-23T08:18:44.148Z,74.30
2018-09-23T08:21:13.697Z,74.30
2018-09-23T08:23:43.393Z,75.30
2018-09-23T08:26:13.014Z,75.20
2018-09-23T08:28:43.484Z,75.10
2018-09-23T08:31:13.188Z,74.40
2018-09-23T08:33:49.445Z,72.20
2018-09-23T08:36:19.156Z,71.90
2018-09-23T08:38:49.931Z,72.10
2018-09-23T08:41:20.670Z,71.80
2018-09-23T08:43:50.269Z,72.50
2018-09-23T08:46:19.739Z,73.00
2018-09-23T08:48:49.509Z,72.80
2018-09-23T08:51:20.017Z,72.50
2018-09-23T08:53:50.342Z,72.80
2018-09-23T08:56:20.492Z,72.30
2018-09-23T08:58:50.096Z,71.90
2018-09-23T09:01:19.576Z,71.90
2018-09-23T09:03:49.212Z,71.50
2018-09-23T09:06:18.842Z,71.20
2018-09-23T09:08:48.583Z,71.50
2018-09-23T09:11:18.252Z,70.80
2018-09-23T09:13:47.707Z,70.40
2018-09-23T09:16:17.376Z,70.50
2018-09-23T09:18:47.099Z,69.80
2018-09-23T09:21:16.732Z,69.40
2018-09-23T09:23:46.994Z,69.60
2018-09-23T09:26:16.399Z,69.70
2018-09-23T09:28:46.391Z,70.40
2018-09-23T09:31:16.120Z,70.70
2018-09-23T09:33:45.698Z,70.80
2018-09-23T09:36:15.850Z,70.40
2018-09-23T09:38:45.897Z,70.70
2018-09-23T09:41:16.932Z,71.20
2018-09-23T09:43:46.641Z,71.20
2018-09-23T09:46:17.688Z,71.80
2018-09-23T09:48:47.577Z,71.30
2018-09-23T09:51:17.219Z,71.40
2018-09-23T09:53:48.061Z,71.10
2018-09-23T09:56:18.525Z,71.20
2018-09-23T09:58:48.382Z,70.80
2018-09-23T10:01:19.257Z,71.00
2018-09-23T10:03:49.035Z,70.90
2018-09-23T10:06:19.658Z,71.50
2018-09-23T10:08:49.338Z,71.60
2018-09-23T10:11:19.642Z,71.50
2018-09-23T10:13:49.734Z,71.70
2018-09-23T10:16:19.488Z,71.60
2018-09-23T10:18:49.030Z,71.90
2018-09-23T10:21:19.222Z,72.10
2018-09-23T10:23:48.809Z,72.20
2018-09-23T10:26:19.881Z,72.40
2018-09-23T10:28:50.325Z,72.50
2018-09-23T10:31:19.996Z,72.40
2018-09-23T10:33:50.196Z,72.40
2018-09-23T10:36:19.934Z,72.80
2018-09-23T10:38:49.502Z,73.00
2018-09-23T10:41:19.680Z,73.20
2018-09-23T10:43:50.985Z,73.00
2018-09-23T10:46:20.752Z,73.20
2018-09-23T10:48:50.706Z,73.70
2018-09-23T10:51:24.213Z,74.20
2018-09-23T10:53:53.816Z,75.00
2018-09-23T10:56:23.840Z,76.10
2018-09-23T10:58:53.566Z,77.10
2018-09-23T11:01:23.153Z,80.20
2018-09-23T11:03:54.474Z,81.80
2018-09-23T11:06:24.757Z,83.10
2018-09-23T11:08:54.432Z,84.50
2018-09-23T11:11:24.266Z,85.10
2018-09-23T11:13:54.989Z,85.50
2018-09-23T11:16:25.454Z,86.30
2018-09-23T11:18:55.021Z,86.40
2018-09-23T11:21:25.177Z,87.80
2018-09-23T11:23:54.744Z,88.80
2018-09-23T11:26:24.343Z,89.30
2018-09-23T11:28:53.980Z,89.80
2018-09-23T11:31:24.002Z,90.00
2018-09-23T11:33:55.768Z,90.00
2018-09-23T11:36:25.376Z,89.90
2018-09-23T11:38:56.331Z,90.00
2018-09-23T11:41:26.905Z,90.00
2018-09-23T11:43:56.479Z,90.00
2018-09-23T11:46:26.221Z,89.90
2018-09-23T11:48:55.825Z,90.00
2018-09-23T11:51:25.442Z,90.20
2018-09-23T11:53:56.151Z,90.20
2018-09-23T11:56:26.937Z,90.10
2018-09-23T11:58:56.865Z,90.20
2018-09-23T12:01:27.225Z,90.70
2018-09-23T12:03:56.894Z,91.30
2018-09-23T12:06:26.707Z,91.90
2018-09-23T12:08:58.514Z,92.40
2018-09-23T12:11:29.301Z,92.40
2018-09-23T12:13:59.095Z,92.50
2018-09-23T12:16:29.195Z,92.80
2018-09-23T12:18:59.690Z,93.00
2018-09-23T12:21:29.323Z,93.10
2018-09-23T12:23:58.911Z,92.90
2018-09-23T12:26:29.484Z,93.10
2018-09-23T12:28:59.148Z,93.20
2018-09-23T12:31:29.121Z,93.60
2018-09-23T12:33:58.620Z,93.60
2018-09-23T12:36:28.354Z,93.70
2018-09-23T12:38:58.421Z,93.80
2018-09-23T12:41:27.997Z,93.60
2018-09-23T12:43:57.818Z,93.80
2018-09-23T12:46:27.765Z,93.70
2018-09-23T12:48:57.425Z,93.60
2018-09-23T12:51:27.105Z,93.90
2018-09-23T12:53:57.371Z,94.00
2018-09-23T12:56:27.673Z,94.10
2018-09-23T12:58:57.264Z,94.00
2018-09-23T13:01:26.911Z,93.80
2018-09-23T13:03:56.509Z,94.10
2018-09-23T13:06:26.376Z,94.00
2018-09-23T13:08:56.047Z,93.90
2018-09-23T13:11:25.667Z,93.80
2018-09-23T13:13:56.393Z,93.60
2018-09-23T13:16:26.034Z,93.50
2018-09-23T13:18:56.279Z,93.10
2018-09-23T13:21:26.202Z,93.20
2018-09-23T13:23:55.847Z,93.10
2018-09-23T13:26:26.003Z,92.90
2018-09-23T13:28:55.512Z,92.70
2018-09-23T13:31:25.122Z,92.80
2018-09-23T13:33:54.831Z,92.50
2018-09-23T13:36:25.385Z,92.60
2018-09-23T13:38:58.279Z,92.60
2018-09-23T13:41:28.464Z,92.70
2018-09-23T13:43:58.618Z,93.20
2018-09-23T13:46:28.128Z,92.90
2018-09-23T13:48:57.766Z,93.10
2018-09-23T13:51:28.237Z,93.30
2018-09-23T13:53:58.375Z,93.30
2018-09-23T13:56:27.916Z,93.10
2018-09-23T13:58:58.547Z,93.10
2018-09-23T14:01:28.462Z,93.00
2018-09-23T14:03:58.078Z,93.00
2018-09-23T14:06:27.730Z,92.60
2018-09-23T14:08:57.450Z,92.80
2018-09-23T14:11:27.130Z,93.00
2018-09-23T14:13:56.828Z,93.10
2018-09-23T14:16:26.903Z,92.80
2018-09-23T14:18:56.764Z,92.50
2018-09-23T14:21:27.536Z,92.40
2018-09-23T14:23:57.232Z,92.10
2018-09-23T14:26:27.399Z,91.80
2018-09-23T14:28:57.132Z,91.70
2018-09-23T14:31:27.736Z,91.70
2018-09-23T14:34:00.661Z,91.30
2018-09-23T14:36:31.113Z,91.30
2018-09-23T14:39:00.894Z,91.00
2018-09-23T14:41:31.197Z,90.90
2018-09-23T14:44:00.913Z,90.90
2018-09-23T14:46:30.963Z,90.60
2018-09-23T14:49:01.837Z,90.70
2018-09-23T14:51:32.589Z,90.60
2018-09-23T14:54:03.617Z,90.50
2018-09-23T14:56:34.597Z,90.40
2018-09-23T14:59:04.861Z,90.20
2018-09-23T15:01:35.877Z,89.90
2018-09-23T15:04:05.421Z,89.50
2018-09-23T15:06:34.888Z,89.20
2018-09-23T15:09:10.666Z,88.60
2018-09-23T15:11:40.375Z,88.20
2018-09-23T15:14:10.126Z,87.50
2018-09-23T15:16:40.481Z,86.70
2018-09-23T15:19:10.281Z,86.20
2018-09-23T15:21:39.859Z,85.90
2018-09-23T15:24:09.276Z,85.70
2018-09-23T15:26:39.312Z,85.70
2018-09-23T15:29:09.172Z,85.30
2018-09-23T15:31:38.743Z,85.10
2018-09-23T15:34:08.265Z,84.60
2018-09-23T15:36:37.785Z,84.40
2018-09-23T15:39:08.198Z,84.50
2018-09-23T15:41:38.791Z,84.10
2018-09-23T15:44:08.257Z,83.80
2018-09-23T15:46:37.777Z,84.30
2018-09-23T15:49:09.228Z,84.70
2018-09-23T15:51:38.900Z,84.90
2018-09-23T15:54:08.747Z,85.00
2018-09-23T15:56:39.005Z,85.10
2018-09-23T15:59:09.177Z,85.30
2018-09-23T16:01:38.662Z,85.50
2018-09-23T16:04:08.264Z,85.60
2018-09-23T16:06:37.771Z,85.70
2018-09-23T16:09:09.447Z,86.10
2018-09-23T16:11:39.282Z,86.30
2018-09-23T16:14:08.755Z,86.40
2018-09-23T16:16:38.252Z,86.20
2018-09-23T16:19:07.778Z,86.40
2018-09-23T16:21:37.173Z,87.50
2018-09-23T16:24:06.895Z,86.80
2018-09-23T16:26:36.342Z,87.20
2018-09-23T16:29:05.808Z,87.60
2018-09-23T16:31:35.515Z,87.50
2018-09-23T16:34:05.961Z,87.40
2018-09-23T16:36:36.718Z,87.40
2018-09-23T16:39:08.284Z,87.20
2018-09-23T16:41:39.823Z,87.60
2018-09-23T16:44:10.021Z,87.70
2018-09-23T16:46:39.716Z,87.70
2018-09-23T16:49:09.396Z,87.60
2018-09-23T16:51:39.788Z,87.70
2018-09-23T16:54:11.731Z,87.90
2018-09-23T16:56:42.162Z,88.10
2018-09-23T16:59:12.403Z,88.00
2018-09-23T17:01:43.418Z,87.90
2018-09-23T17:04:13.193Z,88.30
2018-09-23T17:06:42.708Z,88.60
2018-09-23T17:09:13.769Z,88.30
2018-09-23T17:11:43.511Z,88.60
2018-09-23T17:14:13.095Z,88.50
2018-09-23T17:16:42.810Z,88.70
2018-09-23T17:19:13.171Z,88.30
2018-09-23T17:21:43.191Z,88.70
2018-09-23T17:24:12.916Z,88.40
2018-09-23T17:26:43.150Z,88.20
2018-09-23T17:29:12.949Z,88.60
2018-09-23T17:31:43.354Z,88.70
2018-09-23T17:34:13.665Z,88.60
2018-09-23T17:36:52.957Z,88.50
2018-09-23T17:39:22.590Z,88.60
2018-09-23T17:41:54.004Z,88.20
2018-09-23T17:44:24.320Z,88.20
2018-09-23T17:46:54.713Z,87.90
2018-09-23T17:49:24.423Z,88.00
2018-09-23T17:51:54.495Z,87.90
2018-09-23T17:54:24.276Z,87.90
2018-09-23T17:56:54.540Z,88.00
2018-09-23T17:59:24.261Z,88.20
2018-09-23T18:01:54.091Z,88.10
2018-09-23T18:04:24.318Z,88.10
2018-09-23T18:06:54.224Z,88.20
2018-09-23T18:09:23.680Z,88.30
2018-09-23T18:11:54.478Z,88.50
2018-09-23T18:14:25.548Z,89.20
2018-09-23T18:16:55.260Z,88.40
2018-09-23T18:19:24.862Z,88.30
2018-09-23T18:21:55.091Z,88.40
2018-09-23T18:24:24.797Z,88.40
2018-09-23T18:26:56.255Z,88.60
2018-09-23T18:29:25.794Z,88.80
2018-09-23T18:31:55.990Z,89.10
2018-09-23T18:34:26.538Z,89.20
2018-09-23T18:36:56.130Z,89.60
2018-09-23T18:39:27.351Z,89.70
2018-09-23T18:41:57.830Z,89.90
2018-09-23T18:44:28.729Z,89.80
2018-09-23T18:46:59.282Z,90.00
2018-09-23T18:49:29.076Z,90.10
2018-09-23T18:51:59.471Z,90.00
2018-09-23T18:54:34.122Z,90.10
2018-09-23T18:57:09.703Z,90.20
2018-09-23T18:59:40.307Z,90.20
2018-09-23T19:02:09.965Z,90.20
2018-09-23T19:04:44.303Z,90.30
2018-09-23T19:07:14.384Z,90.40
2018-09-23T19:09:44.147Z,90.40
2018-09-23T19:12:14.864Z,90.40
2018-09-23T19:14:45.208Z,90.30
2018-09-23T19:17:14.910Z,90.60
2018-09-23T19:19:50.283Z,90.60
2018-09-23T19:22:26.162Z,90.60
2018-09-23T19:24:56.145Z,90.60
2018-09-23T19:27:26.460Z,90.60
2018-09-23T19:29:56.885Z,90.70
2018-09-23T19:32:28.933Z,90.70
2018-09-23T19:34:59.193Z,90.80
2018-09-23T19:37:28.758Z,90.70
2018-09-23T19:39:58.422Z,90.70
2018-09-23T19:42:27.879Z,90.70
2018-09-23T19:44:58.646Z,90.70
2018-09-23T19:47:28.325Z,90.70
2018-09-23T19:49:57.888Z,90.80
2018-09-23T19:52:27.984Z,90.90
2018-09-23T19:54:58.303Z,90.90
2018-09-23T19:57:29.484Z,91.00
2018-09-23T19:59:59.446Z,91.20
2018-09-23T20:02:30.211Z,91.10
2018-09-23T20:04:59.957Z,91.10
2018-09-23T20:07:30.132Z,91.10
2018-09-23T20:10:00.383Z,91.20
2018-09-23T20:12:30.624Z,91.10
2018-09-23T20:15:02.316Z,91.20
2018-09-23T20:17:32.692Z,91.40
2018-09-23T20:20:03.557Z,91.50
2018-09-23T20:22:34.521Z,91.80
2018-09-23T20:25:05.291Z,92.10
2018-09-23T20:27:34.873Z,92.40
2018-09-23T20:30:05.835Z,92.70
2018-09-23T20:32:36.273Z,92.70
2018-09-23T20:35:07.071Z,93.10
2018-09-23T20:37:39.024Z,93.50
2018-09-23T20:40:08.642Z,93.60
2018-09-23T20:42:42.762Z,93.70
2018-09-23T20:45:13.734Z,94.00
2018-09-23T20:47:44.437Z,93.70
2018-09-23T20:50:14.225Z,93.70
2018-09-23T20:52:44.228Z,93.80
2018-09-23T20:55:17.893Z,94.10
2018-09-23T20:57:48.136Z,94.20
2018-09-23T21:00:18.237Z,94.30
2018-09-23T21:02:48.369Z,94.30
2018-09-23T21:05:19.205Z,94.90
2018-09-23T21:07:49.056Z,95.80
2018-09-23T21:10:18.715Z,96.80
2018-09-23T21:12:48.634Z,97.30
2018-09-23T21:15:18.770Z,97.70
2018-09-23T21:17:49.830Z,98.70
2018-09-23T21:20:19.572Z,99.70
2018-09-23T21:22:49.896Z,99.90
2018-09-23T21:25:21.101Z,99.90
2018-09-23T21:27:51.788Z,99.90
2018-09-23T21:30:21.674Z,99.80
2018-09-23T21:32:52.131Z,99.30
2018-09-23T21:35:23.271Z,99.10
2018-09-23T21:37:54.261Z,99.10
2018-09-23T21:40:23.869Z,99.30
2018-09-23T21:42:53.516Z,98.90
2018-09-23T21:45:23.410Z,98.90
2018-09-23T21:47:54.006Z,98.80
2018-09-23T21:50:24.253Z,99.20
2018-09-23T21:52:54.578Z,99.50
2018-09-23T21:55:25.384Z,99.50
2018-09-23T21:57:55.217Z,99.90
2018-09-23T22:00:30.453Z,99.60
2018-09-23T22:03:01.391Z,99.70
2018-09-23T22:05:35.337Z,99.50
2018-09-23T22:08:10.068Z,99.90
2018-09-23T22:10:40.417Z,99.70
2018-09-23T22:13:10.372Z,99.50
2018-09-23T22:15:40.768Z,99.40
2018-09-23T22:18:11.355Z,99.70
2018-09-23T22:20:43.035Z,99.90
2018-09-23T22:23:12.765Z,99.90
2018-09-23T22:25:43.445Z,99.90
2018-09-23T22:28:14.137Z,99.90
2018-09-23T22:30:44.652Z,99.90
2018-09-23T22:33:14.460Z,99.90
2018-09-23T22:35:44.640Z,99.90
2018-09-23T22:38:15.386Z,99.90
2018-09-23T22:40:45.506Z,99.90
2018-09-23T22:43:16.782Z,99.90
2018-09-23T22:45:46.867Z,99.90
2018-09-23T22:48:17.923Z,99.90
2018-09-23T22:50:48.695Z,99.90
2018-09-23T22:53:18.273Z,99.90
2018-09-23T22:55:47.967Z,99.60
2018-09-23T22:58:17.868Z,99.60
2018-09-23T23:00:48.182Z,99.10
2018-09-23T23:03:18.723Z,99.50
2018-09-23T23:05:49.951Z,97.90
2018-09-23T23:08:24.467Z,98.50
2018-09-23T23:10:58.383Z,98.90
2018-09-23T23:13:32.425Z,98.80
2018-09-23T23:16:07.543Z,99.40
2018-09-23T23:18:39.001Z,99.20
2018-09-23T23:21:10.643Z,99.60
2018-09-23T23:23:40.541Z,99.90
2018-09-23T23:26:17.995Z,99.80
2018-09-23T23:28:48.375Z,99.90
2018-09-23T23:31:18.824Z,99.90
2018-09-23T23:33:48.810Z,99.90
2018-09-23T23:36:18.352Z,99.90
2018-09-23T23:38:49.273Z,99.70
2018-09-23T23:41:18.793Z,99.50
2018-09-23T23:43:48.172Z,99.90
2018-09-23T23:46:18.300Z,99.10
2018-09-23T23:48:48.388Z,98.10
2018-09-23T23:51:18.421Z,97.40
2018-09-23T23:53:49.135Z,96.90
2018-09-23T23:56:20.510Z,97.00
2018-09-23T23:58:49.960Z,96.20
